KRWI/RWI METAR and TAF weather

Enter ICAO airport designator
Station Type Date Time Source
KRWI METAR 2020/06/05 12:53 UTC NOAA

KRWI 051253Z AUTO A3000 RMK AO2 SLPNO PWINO $


Station Type Date Time Source
KRWI Decoded METAR 2020/06/05 12:53 UTC NOAA

ROCKY MOUNT-WILSON AIRPORT, NC, United States (KRWI) 35-51N 077-54W 47M
Jun 05, 2020 - 08:53 AM EDT / 2020.06.05 1253 UTC
Pressure (altimeter): 30 in. Hg (1015 hPa)
ob: KRWI 051253Z AUTO A3000 RMK AO2 SLPNO PWINO
cycle: 13

Station Type Date Time Source
KRWI TAF 2020/06/05 12:48 UTC NOAA

TAF KRWI 051140Z 0512/0612 18007KT P6SM BKN090 BKN250
FM051300 19007KT 6SM -SHRA BKN020
TEMPO 0514/0518 SCT020 BKN035
FM051800 19008KT P6SM VCSH BKN035 BKN250
TEMPO 0518/0520 VRB15G25KT 4SM -TSRA SCT028 BKN040CB OVC110
FM052000 20008KT P6SM VCSH BKN035 BKN120
FM060800 26003KT 6SM BR SCT005 BKN250

Example: see airport list